< < Back
Terminal Aerodrome Forecast


Current Version              Previous Versions:   1  2  3  4  5  6  7  8  9  

Terminal Aerodrome Forecast

371
FTUS42 KGSP 011402 AAD
TAFAND
TAF AMD
KAND 011402Z 0114/0212 21003KT P6SM SCT015
      TEMPO 0114/0115 BKN015
     FM011600 23006G15KT P6SM FEW060 SCT250
     FM020000 25003KT P6SM FEW060
     FM020900 VRB03KT 5SM BR FEW060=

Latest METAR

626
SAUS70 KWBC 020300 RRC
MTRAND
METAR KAND 020256Z AUTO 00000KT 10SM CLR 26/19 A3000 RMK AO2 SLP146
T02560194 53012


USA.gov is the U.S. government's official web portal to all federal, state and local government web resources and services.